createdAt,value
2023-10-17T00:01:56.113Z,94.28
2023-10-17T00:04:24.532Z,94.34
2023-10-17T00:06:54.423Z,94.61
2023-10-17T00:09:26.027Z,93.66
2023-10-17T00:11:56.480Z,94.95
2023-10-17T00:14:38.402Z,95.35
2023-10-17T00:17:06.787Z,96.06
2023-10-17T00:19:35.041Z,96.15
2023-10-17T00:22:06.246Z,96.64
2023-10-17T00:24:37.579Z,97.44
2023-10-17T00:27:08.181Z,96.14
2023-10-17T00:29:36.561Z,96.84
2023-10-17T00:32:04.975Z,96.12
2023-10-17T00:34:38.128Z,96.28
2023-10-17T00:37:12.737Z,94.68
2023-10-17T00:39:41.380Z,95.55
2023-10-17T00:42:10.093Z,94.43
2023-10-17T00:44:42.746Z,94.25
2023-10-17T00:47:13.230Z,94.67
2023-10-17T00:49:45.701Z,95.22
2023-10-17T00:52:25.804Z,93.35
2023-10-17T00:54:55.356Z,94.32
2023-10-17T00:57:28.382Z,93.76
2023-10-17T00:59:58.583Z,95.38
2023-10-17T01:02:33.126Z,94.29
2023-10-17T01:05:01.786Z,91.61
2023-10-17T01:07:35.687Z,89.88
2023-10-17T01:10:12.089Z,92.74
2023-10-17T01:13:01.778Z,92.84
2023-10-17T01:15:34.047Z,93.95
2023-10-17T01:18:05.641Z,92.25
2023-10-17T01:20:35.926Z,91.22
2023-10-17T01:23:05.689Z,91.33
2023-10-17T01:25:42.152Z,91.37
2023-10-17T01:28:11.746Z,90.69
2023-10-17T01:30:42.616Z,90.70
2023-10-17T01:33:11.541Z,92.80
2023-10-17T01:35:45.226Z,93.27
2023-10-17T01:38:14.423Z,94.75
2023-10-17T01:40:42.701Z,93.91
2023-10-17T01:43:11.738Z,94.33
2023-10-17T01:45:43.572Z,93.62
2023-10-17T01:48:12.710Z,93.70
2023-10-17T01:50:41.124Z,94.23
2023-10-17T01:53:13.961Z,95.12
2023-10-17T01:55:53.272Z,96.18
2023-10-17T01:58:23.407Z,96.37
2023-10-17T02:00:56.075Z,96.95
2023-10-17T02:03:24.660Z,96.55
2023-10-17T02:05:52.931Z,96.98
2023-10-17T02:08:23.282Z,97.13
2023-10-17T02:10:52.331Z,96.24
2023-10-17T02:13:22.408Z,95.27
2023-10-17T02:15:52.028Z,94.27
2023-10-17T02:18:20.684Z,95.35
2023-10-17T02:20:52.788Z,94.48
2023-10-17T02:23:21.421Z,94.13
2023-10-17T02:25:51.680Z,93.06
2023-10-17T02:28:21.403Z,93.68
2023-10-17T02:30:49.913Z,93.76
2023-10-17T02:33:18.767Z,94.31
2023-10-17T02:36:12.131Z,92.03
2023-10-17T02:38:41.671Z,91.31
2023-10-17T02:41:25.595Z,91.08
2023-10-17T02:43:55.115Z,90.51
2023-10-17T02:46:28.259Z,89.52
2023-10-17T02:48:57.296Z,89.04
2023-10-17T02:51:28.901Z,88.41
2023-10-17T02:53:57.738Z,88.57
2023-10-17T02:56:27.422Z,89.10
2023-10-17T02:59:13.361Z,90.25
2023-10-17T03:01:44.264Z,90.05
2023-10-17T03:04:14.539Z,88.62
2023-10-17T03:06:46.001Z,89.21
2023-10-17T03:09:24.735Z,89.24
2023-10-17T03:11:57.992Z,87.40
2023-10-17T03:14:34.351Z,88.22
2023-10-17T03:17:05.425Z,89.79
2023-10-17T03:19:34.946Z,88.94
2023-10-17T03:22:25.417Z,87.05
2023-10-17T03:25:02.852Z,87.85
2023-10-17T03:27:39.350Z,87.01
2023-10-17T03:30:12.667Z,86.20
2023-10-17T03:32:59.267Z,87.76
2023-10-17T03:35:36.475Z,86.68
2023-10-17T03:38:05.488Z,87.67
2023-10-17T03:40:52.134Z,87.01
2023-10-17T03:43:22.898Z,85.53
2023-10-17T03:45:57.918Z,85.70
2023-10-17T03:48:30.521Z,86.03
2023-10-17T03:51:00.916Z,89.17
2023-10-17T03:53:33.290Z,87.94
2023-10-17T03:56:03.692Z,88.08
2023-10-17T03:58:32.523Z,90.09
2023-10-17T04:01:11.561Z,90.15
2023-10-17T04:03:39.971Z,90.48
2023-10-17T04:06:08.521Z,90.47
2023-10-17T04:08:49.709Z,95.23
2023-10-17T04:11:23.332Z,94.82
2023-10-17T04:13:56.348Z,95.14
2023-10-17T04:16:35.671Z,94.66
2023-10-17T04:19:22.172Z,96.77
2023-10-17T04:22:02.818Z,96.42
2023-10-17T04:24:40.328Z,95.61
2023-10-17T04:27:14.513Z,95.90
2023-10-17T04:29:51.640Z,96.70
2023-10-17T04:32:23.021Z,97.49
2023-10-17T04:34:53.861Z,97.02
2023-10-17T04:37:35.059Z,96.57
2023-10-17T04:40:29.066Z,95.74
2023-10-17T04:42:58.529Z,97.99
2023-10-17T04:45:30.844Z,96.09
2023-10-17T04:48:19.327Z,93.97
2023-10-17T04:50:57.421Z,93.61
2023-10-17T04:53:36.602Z,91.37
2023-10-17T04:56:17.228Z,90.64
2023-10-17T04:58:49.020Z,91.59
2023-10-17T05:01:38.231Z,92.35
2023-10-17T05:04:20.810Z,91.45
2023-10-17T05:06:58.530Z,91.79
2023-10-17T05:09:33.071Z,91.39
2023-10-17T05:12:20.176Z,93.56
2023-10-17T05:15:09.496Z,92.40
2023-10-17T05:17:56.547Z,95.08
2023-10-17T05:20:44.879Z,94.31
2023-10-17T05:23:32.805Z,93.97
2023-10-17T05:26:27.052Z,93.28
2023-10-17T05:29:13.911Z,95.65
2023-10-17T05:32:03.359Z,98.94
2023-10-17T05:34:51.310Z,97.96
2023-10-17T05:37:41.128Z,98.08
2023-10-17T05:40:28.138Z,97.06
2023-10-17T05:43:14.765Z,97.59
2023-10-17T05:46:01.442Z,98.20
2023-10-17T05:48:50.935Z,100.00
2023-10-17T05:51:37.995Z,100.00
2023-10-17T05:54:55.876Z,100.00
2023-10-17T05:57:34.605Z,99.90
2023-10-17T06:00:21.491Z,100.00
2023-10-17T06:03:25.421Z,100.00
2023-10-17T06:06:25.428Z,98.29
2023-10-17T06:09:19.448Z,97.58
2023-10-17T06:12:08.638Z,96.52
2023-10-17T06:14:55.714Z,94.14
2023-10-17T06:17:25.138Z,93.30
2023-10-17T06:19:53.898Z,92.01
2023-10-17T06:22:22.190Z,85.89
2023-10-17T06:25:02.346Z,87.52
2023-10-17T06:27:52.385Z,87.89
2023-10-17T06:30:30.641Z,86.79
2023-10-17T06:33:18.988Z,86.67
2023-10-17T06:35:55.557Z,88.01
2023-10-17T06:38:31.161Z,88.90
2023-10-17T06:41:17.214Z,88.47
2023-10-17T06:43:51.434Z,87.47
2023-10-17T06:46:40.884Z,88.15
2023-10-17T06:49:10.222Z,89.20
2023-10-17T06:51:40.202Z,85.53
2023-10-17T06:54:08.857Z,84.56
2023-10-17T06:56:45.532Z,84.14
2023-10-17T06:59:25.143Z,83.71
2023-10-17T07:02:27.394Z,82.00
2023-10-17T07:04:59.293Z,83.66
2023-10-17T07:07:41.466Z,86.16
2023-10-17T07:10:29.708Z,84.30
2023-10-17T07:13:40.552Z,81.97
2023-10-17T07:16:15.257Z,78.41
2023-10-17T07:18:48.426Z,74.13
2023-10-17T07:21:18.440Z,76.09
2023-10-17T07:23:51.370Z,76.13
2023-10-17T07:26:25.423Z,76.86
2023-10-17T07:28:54.223Z,77.33
2023-10-17T07:31:26.079Z,74.72
2023-10-17T07:34:17.526Z,75.38
2023-10-17T07:36:49.172Z,74.97
2023-10-17T07:39:24.080Z,73.54
2023-10-17T07:41:55.320Z,74.39
2023-10-17T07:44:28.157Z,72.76
2023-10-17T07:47:04.678Z,72.42
2023-10-17T07:49:35.519Z,71.36
2023-10-17T07:52:16.922Z,70.49
2023-10-17T07:55:21.367Z,71.07
2023-10-17T07:57:56.637Z,68.58
2023-10-17T08:00:30.368Z,69.02
2023-10-17T08:03:18.862Z,68.98
2023-10-17T08:06:09.070Z,67.98
2023-10-17T08:08:43.528Z,67.72
2023-10-17T08:11:33.216Z,67.33
2023-10-17T08:14:05.466Z,69.51
2023-10-17T08:16:34.455Z,68.91
2023-10-17T08:19:23.148Z,66.40
2023-10-17T08:21:54.749Z,67.88
2023-10-17T08:24:41.916Z,66.75
2023-10-17T08:27:22.730Z,66.70
2023-10-17T08:30:13.454Z,68.71
2023-10-17T08:33:00.882Z,68.41
2023-10-17T08:35:39.285Z,68.54
2023-10-17T08:38:08.522Z,68.46
2023-10-17T08:40:36.802Z,67.40
2023-10-17T08:43:16.456Z,69.06
2023-10-17T08:45:49.024Z,67.38
2023-10-17T08:48:17.756Z,66.70
2023-10-17T08:50:46.183Z,68.76
2023-10-17T08:53:15.156Z,65.66
2023-10-17T08:55:43.606Z,65.88
2023-10-17T08:58:12.368Z,64.80
2023-10-17T09:00:47.283Z,65.88
2023-10-17T09:03:30.852Z,66.59
2023-10-17T09:06:08.851Z,66.47
2023-10-17T09:08:52.608Z,66.09
2023-10-17T09:11:42.845Z,64.20
2023-10-17T09:14:31.134Z,65.90
2023-10-17T09:17:27.618Z,64.48
2023-10-17T09:19:58.388Z,64.21
2023-10-17T09:22:29.494Z,64.44
2023-10-17T09:25:01.115Z,64.65
2023-10-17T09:27:32.917Z,65.13
2023-10-17T09:30:01.359Z,63.27
2023-10-17T09:32:41.830Z,63.34
2023-10-17T09:35:17.162Z,63.26
2023-10-17T09:37:52.870Z,63.77
2023-10-17T09:40:31.688Z,64.08
2023-10-17T09:43:01.584Z,63.25
2023-10-17T09:45:37.104Z,62.85
2023-10-17T09:48:09.848Z,62.04
2023-10-17T09:50:39.666Z,62.27
2023-10-17T09:53:19.159Z,60.34
2023-10-17T09:55:50.473Z,62.19
2023-10-17T09:58:32.810Z,62.93
2023-10-17T10:01:18.567Z,62.70
2023-10-17T10:03:50.107Z,62.01
2023-10-17T10:06:32.278Z,60.98
2023-10-17T10:09:26.503Z,61.78
2023-10-17T10:11:56.750Z,60.96
2023-10-17T10:14:32.009Z,60.00
2023-10-17T10:17:04.340Z,60.57
2023-10-17T10:19:52.089Z,60.53
2023-10-17T10:22:20.410Z,60.02
2023-10-17T10:25:04.057Z,59.51
2023-10-17T10:27:32.742Z,59.16
2023-10-17T10:30:44.947Z,59.50
2023-10-17T10:33:14.945Z,59.59
2023-10-17T10:35:46.624Z,58.86
2023-10-17T10:38:15.905Z,58.45
2023-10-17T10:40:47.374Z,58.05
2023-10-17T10:43:20.231Z,58.41
2023-10-17T10:45:56.589Z,58.13
2023-10-17T10:48:27.908Z,57.37
2023-10-17T10:50:59.100Z,57.68
2023-10-17T10:53:40.561Z,57.23
2023-10-17T10:56:12.400Z,57.99
2023-10-17T10:58:48.888Z,56.97
2023-10-17T11:01:17.447Z,55.01
2023-10-17T11:03:49.880Z,57.56
2023-10-17T11:06:26.200Z,57.21
2023-10-17T11:08:57.808Z,56.06
2023-10-17T11:11:27.054Z,55.23
2023-10-17T11:13:56.062Z,56.15
2023-10-17T11:16:26.675Z,54.89
2023-10-17T11:18:58.413Z,55.32
2023-10-17T11:21:26.900Z,54.53
2023-10-17T11:24:01.923Z,55.56
2023-10-17T11:26:35.552Z,53.40
2023-10-17T11:29:04.916Z,54.52
2023-10-17T11:31:34.614Z,53.74
2023-10-17T11:34:06.074Z,53.79
2023-10-17T11:36:49.438Z,53.35
2023-10-17T11:39:17.876Z,54.60
2023-10-17T11:41:54.478Z,53.14
2023-10-17T11:44:29.148Z,54.17
2023-10-17T11:47:04.418Z,53.98
2023-10-17T11:49:37.402Z,55.32
2023-10-17T11:52:13.851Z,54.79
2023-10-17T11:54:57.467Z,56.30
2023-10-17T11:57:32.758Z,56.17
2023-10-17T12:00:09.083Z,55.90
2023-10-17T12:02:43.266Z,57.06
2023-10-17T12:05:19.406Z,55.07
2023-10-17T12:07:51.548Z,53.79
2023-10-17T12:10:27.098Z,55.72
2023-10-17T12:13:07.866Z,55.89
2023-10-17T12:15:36.331Z,55.02
2023-10-17T12:18:04.868Z,55.17
2023-10-17T12:20:33.138Z,55.62
2023-10-17T12:23:01.882Z,54.43
2023-10-17T12:25:34.227Z,53.07
2023-10-17T12:28:03.667Z,54.31
2023-10-17T12:30:37.904Z,53.03
2023-10-17T12:33:10.228Z,52.44
2023-10-17T12:35:39.114Z,52.39
2023-10-17T12:38:15.475Z,53.26
2023-10-17T12:40:44.383Z,54.33
2023-10-17T12:43:13.284Z,54.61
2023-10-17T12:45:42.996Z,55.53
2023-10-17T12:48:12.437Z,55.10
2023-10-17T12:50:46.851Z,55.26
2023-10-17T12:53:15.799Z,55.58
2023-10-17T12:55:44.003Z,54.41
2023-10-17T12:58:12.273Z,54.14
2023-10-17T13:00:42.649Z,53.81
2023-10-17T13:03:11.035Z,53.08
2023-10-17T13:05:39.677Z,54.56
2023-10-17T13:08:08.569Z,55.13
2023-10-17T13:10:36.891Z,54.73
2023-10-17T13:13:05.247Z,52.95
2023-10-17T13:15:33.506Z,53.90
2023-10-17T13:18:08.045Z,55.24
2023-10-17T13:20:43.433Z,54.77
2023-10-17T13:23:24.793Z,55.13
2023-10-17T13:25:54.784Z,54.79
2023-10-17T13:28:26.487Z,54.19
2023-10-17T13:30:54.817Z,54.13
2023-10-17T13:33:23.221Z,54.92
2023-10-17T13:35:51.451Z,53.41
2023-10-17T13:38:21.538Z,54.08
2023-10-17T13:40:49.773Z,53.94
2023-10-17T13:43:19.126Z,53.20
2023-10-17T13:45:47.569Z,54.29
2023-10-17T13:48:16.021Z,53.36
2023-10-17T13:50:44.295Z,52.27
2023-10-17T13:53:18.125Z,55.03
2023-10-17T13:55:46.651Z,54.04
2023-10-17T13:58:16.884Z,53.67
2023-10-17T14:00:45.561Z,54.32
2023-10-17T14:03:15.453Z,54.54
2023-10-17T14:05:50.047Z,54.74
2023-10-17T14:08:19.680Z,53.84
2023-10-17T14:10:48.300Z,54.08
2023-10-17T14:13:18.652Z,56.09
2023-10-17T14:15:46.998Z,56.16
2023-10-17T14:18:16.033Z,55.37
2023-10-17T14:21:24.868Z,55.91
2023-10-17T14:23:59.319Z,55.26
2023-10-17T14:26:30.532Z,56.45
2023-10-17T14:29:01.660Z,54.90
2023-10-17T14:31:32.398Z,57.07
2023-10-17T14:34:02.047Z,55.90
2023-10-17T14:36:30.576Z,55.94
2023-10-17T14:39:00.915Z,57.09
2023-10-17T14:41:31.776Z,57.00
2023-10-17T14:44:02.958Z,58.43
2023-10-17T14:46:31.773Z,58.88
2023-10-17T14:49:03.115Z,58.29
2023-10-17T14:51:34.678Z,58.27
2023-10-17T14:54:07.281Z,58.21
2023-10-17T14:56:37.464Z,57.57
2023-10-17T14:59:06.526Z,58.59
2023-10-17T15:01:37.346Z,58.01
2023-10-17T15:04:07.200Z,58.97
2023-10-17T15:06:37.824Z,59.78
2023-10-17T15:09:10.243Z,58.40
2023-10-17T15:11:39.655Z,57.71
2023-10-17T15:14:10.086Z,57.43
2023-10-17T15:16:38.857Z,58.11
2023-10-17T15:19:09.991Z,58.27
2023-10-17T15:21:38.848Z,58.76
2023-10-17T15:24:11.571Z,58.76
2023-10-17T15:26:42.800Z,58.69
2023-10-17T15:29:13.488Z,58.81
2023-10-17T15:31:44.772Z,59.17
2023-10-17T15:34:14.783Z,59.56
2023-10-17T15:36:44.128Z,59.59
2023-10-17T15:39:14.548Z,59.22
2023-10-17T15:41:42.821Z,58.97
2023-10-17T15:44:13.997Z,58.78
2023-10-17T15:46:42.415Z,59.89
2023-10-17T15:49:14.486Z,60.03
2023-10-17T15:51:42.795Z,59.48
2023-10-17T15:54:11.251Z,60.08
2023-10-17T15:56:39.545Z,60.23
2023-10-17T15:59:10.920Z,61.10
2023-10-17T16:01:39.160Z,60.85
2023-10-17T16:04:08.339Z,61.48
2023-10-17T16:06:36.828Z,61.23
2023-10-17T16:09:08.489Z,62.19
2023-10-17T16:11:38.263Z,61.78
2023-10-17T16:14:06.576Z,63.22
2023-10-17T16:16:36.518Z,62.91
2023-10-17T16:19:05.202Z,63.43
2023-10-17T16:21:33.496Z,63.71
2023-10-17T16:24:02.961Z,62.89
2023-10-17T16:26:31.654Z,63.54
2023-10-17T16:29:00.081Z,63.94
2023-10-17T16:31:28.313Z,64.59
2023-10-17T16:33:57.194Z,65.01
2023-10-17T16:36:26.670Z,66.61
2023-10-17T16:38:55.544Z,67.28
2023-10-17T16:41:26.899Z,70.36
2023-10-17T16:43:55.200Z,70.78
2023-10-17T16:46:30.249Z,72.89
2023-10-17T16:49:01.192Z,73.46
2023-10-17T16:51:31.314Z,73.06
2023-10-17T16:53:59.880Z,73.41
2023-10-17T16:56:28.231Z,74.89
2023-10-17T16:58:58.377Z,76.88
2023-10-17T17:01:26.923Z,76.92
2023-10-17T17:03:55.366Z,78.97
2023-10-17T17:06:24.804Z,77.89
2023-10-17T17:08:59.010Z,79.59
2023-10-17T17:11:27.588Z,79.82
2023-10-17T17:13:55.899Z,79.75
2023-10-17T17:16:24.283Z,80.40
2023-10-17T17:18:52.682Z,81.98
2023-10-17T17:21:22.243Z,83.33
2023-10-17T17:23:51.030Z,85.63
2023-10-17T17:26:19.394Z,85.01
2023-10-17T17:28:47.719Z,84.44
2023-10-17T17:31:16.044Z,86.50
2023-10-17T17:33:44.412Z,86.48
2023-10-17T17:36:12.733Z,85.92
2023-10-17T17:38:44.440Z,87.24
2023-10-17T17:41:13.589Z,86.50
2023-10-17T17:43:47.228Z,88.12
2023-10-17T17:46:18.597Z,87.38
2023-10-17T17:48:48.391Z,89.01
2023-10-17T17:51:18.194Z,87.75
2023-10-17T17:53:48.730Z,88.56
2023-10-17T17:56:17.553Z,88.10
2023-10-17T17:58:48.493Z,88.79
2023-10-17T18:01:17.609Z,89.69
2023-10-17T18:03:46.283Z,89.09
2023-10-17T18:06:18.142Z,89.44
2023-10-17T18:11:36.455Z,89.61
2023-10-17T18:14:07.626Z,89.05
2023-10-17T18:16:42.082Z,90.59
2023-10-17T18:19:10.542Z,90.62
2023-10-17T18:21:38.965Z,91.35
2023-10-17T18:24:08.482Z,91.37
2023-10-17T18:26:42.104Z,91.93
2023-10-17T18:29:13.499Z,92.07
2023-10-17T18:31:42.389Z,91.89
2023-10-17T18:34:11.782Z,92.37
2023-10-17T18:36:40.244Z,92.33
2023-10-17T18:39:11.564Z,91.84
2023-10-17T18:41:41.926Z,93.50
2023-10-17T18:44:15.731Z,92.62
2023-10-17T18:46:48.423Z,94.10
2023-10-17T18:49:19.304Z,93.98
2023-10-17T18:51:47.720Z,93.71
2023-10-17T18:54:16.324Z,95.10
2023-10-17T18:56:45.108Z,93.06
2023-10-17T18:59:14.034Z,92.84
2023-10-17T19:01:42.512Z,94.54
2023-10-17T19:04:11.706Z,93.62
2023-10-17T19:06:40.087Z,94.86
2023-10-17T19:09:11.788Z,95.29
2023-10-17T19:11:40.121Z,95.27
2023-10-17T19:14:08.528Z,94.46
2023-10-17T19:16:41.837Z,96.42
2023-10-17T19:19:10.688Z,96.75
2023-10-17T19:21:40.312Z,96.75
2023-10-17T19:24:09.221Z,98.00
2023-10-17T19:26:37.505Z,97.40
2023-10-17T19:29:06.177Z,98.02
2023-10-17T19:31:34.433Z,98.88
2023-10-17T19:34:03.092Z,98.88
2023-10-17T19:36:31.924Z,98.21
2023-10-17T19:39:08.087Z,97.85
2023-10-17T19:41:39.979Z,97.00
2023-10-17T19:44:08.477Z,95.94
2023-10-17T19:46:40.957Z,98.56
2023-10-17T19:49:12.718Z,98.31
2023-10-17T19:51:42.555Z,99.37
2023-10-17T19:54:12.467Z,98.63
2023-10-17T19:56:40.919Z,99.33
2023-10-17T19:59:11.286Z,99.63
2023-10-17T20:01:40.068Z,100.00
2023-10-17T20:04:08.456Z,100.00
2023-10-17T20:06:36.830Z,98.99
2023-10-17T20:09:08.574Z,100.00
2023-10-17T20:11:39.326Z,100.00
2023-10-17T20:14:08.375Z,100.00
2023-10-17T20:16:36.763Z,100.00
2023-10-17T20:19:05.083Z,100.00
2023-10-17T20:21:33.366Z,100.00
2023-10-17T20:24:01.657Z,100.00
2023-10-17T20:26:29.862Z,100.00
2023-10-17T20:28:58.128Z,100.00
2023-10-17T20:31:28.175Z,100.00
2023-10-17T20:33:58.121Z,100.00
2023-10-17T20:36:26.565Z,100.00
2023-10-17T20:38:54.829Z,100.00
2023-10-17T20:41:23.357Z,100.00
2023-10-17T20:43:52.367Z,100.00
2023-10-17T20:46:21.067Z,100.00
2023-10-17T20:48:50.336Z,100.00
2023-10-17T20:51:19.584Z,100.00
2023-10-17T20:53:48.698Z,100.00
2023-10-17T20:56:30.265Z,100.00
2023-10-17T20:59:02.826Z,100.00
2023-10-17T21:01:31.075Z,100.00
2023-10-17T21:03:59.827Z,100.00
2023-10-17T21:06:31.112Z,100.00
2023-10-17T21:08:59.684Z,100.00
2023-10-17T21:11:28.768Z,100.00
2023-10-17T21:13:58.356Z,100.00
2023-10-17T21:16:27.865Z,100.00
2023-10-17T21:18:56.321Z,100.00
2023-10-17T21:21:24.636Z,100.00
2023-10-17T21:23:54.758Z,100.00
2023-10-17T21:26:23.081Z,100.00
2023-10-17T21:28:53.781Z,100.00
2023-10-17T21:31:22.531Z,100.00
2023-10-17T21:33:51.186Z,100.00
2023-10-17T21:36:19.418Z,100.00
2023-10-17T21:38:47.830Z,100.00
2023-10-17T21:41:16.166Z,100.00
2023-10-17T21:43:44.571Z,100.00
2023-10-17T21:46:13.255Z,100.00
2023-10-17T21:48:47.743Z,100.00
2023-10-17T21:51:16.388Z,100.00
2023-10-17T21:53:45.691Z,100.00
2023-10-17T21:56:15.443Z,100.00
2023-10-17T21:58:48.435Z,100.00
2023-10-17T22:01:23.699Z,100.00
2023-10-17T22:03:52.295Z,100.00
2023-10-17T22:06:22.902Z,100.00
2023-10-17T22:08:51.097Z,100.00
2023-10-17T22:11:22.323Z,100.00
2023-10-17T22:13:51.633Z,100.00
2023-10-17T22:16:23.605Z,100.00
2023-10-17T22:18:52.233Z,100.00
2023-10-17T22:21:21.620Z,100.00
2023-10-17T22:23:51.692Z,100.00
2023-10-17T22:26:25.257Z,100.00
2023-10-17T22:28:54.739Z,100.00
2023-10-17T22:31:23.227Z,100.00
2023-10-17T22:33:51.738Z,100.00
2023-10-17T22:36:20.052Z,100.00
2023-10-17T22:38:48.433Z,100.00
2023-10-17T22:41:16.676Z,100.00
2023-10-17T22:43:44.975Z,100.00
2023-10-17T22:46:13.297Z,100.00
2023-10-17T22:48:41.627Z,100.00
2023-10-17T22:51:09.866Z,100.00
2023-10-17T22:53:39.365Z,100.00
2023-10-17T22:56:12.773Z,100.00
2023-10-17T22:58:42.032Z,100.00
2023-10-17T23:01:13.639Z,100.00
2023-10-17T23:03:42.699Z,100.00
2023-10-17T23:06:11.650Z,100.00
2023-10-17T23:08:41.587Z,100.00
2023-10-17T23:11:11.124Z,100.00
2023-10-17T23:13:39.465Z,100.00
2023-10-17T23:16:11.080Z,100.00
2023-10-17T23:18:42.632Z,100.00
2023-10-17T23:21:11.249Z,100.00
2023-10-17T23:23:39.719Z,100.00
2023-10-17T23:26:08.720Z,100.00
2023-10-17T23:28:37.512Z,100.00
2023-10-17T23:31:08.377Z,100.00
2023-10-17T23:33:36.829Z,100.00
2023-10-17T23:36:05.494Z,100.00
2023-10-17T23:38:33.854Z,100.00
2023-10-17T23:41:02.123Z,100.00
2023-10-17T23:43:30.541Z,100.00
2023-10-17T23:45:58.727Z,100.00
2023-10-17T23:48:28.192Z,100.00
2023-10-17T23:50:57.090Z,100.00
2023-10-17T23:53:28.824Z,100.00
2023-10-17T23:56:02.385Z,100.00
2023-10-17T23:58:33.339Z,100.00
